createdAt,value
2023-05-07T00:00:30.590Z,57.75
2023-05-07T00:01:30.583Z,58.48
2023-05-07T00:02:30.633Z,53.07
2023-05-07T00:03:30.608Z,56.54
2023-05-07T00:04:30.511Z,65.01
2023-05-07T00:05:30.461Z,59.36
2023-05-07T00:06:31.252Z,63.56
2023-05-07T00:07:30.443Z,56.35
2023-05-07T00:08:30.432Z,57.80
2023-05-07T00:09:30.437Z,58.92
2023-05-07T00:10:30.421Z,60.61
2023-05-07T00:11:30.416Z,49.20
2023-05-07T00:12:30.404Z,55.62
2023-05-07T00:13:30.419Z,55.74
2023-05-07T00:14:30.386Z,57.67
2023-05-07T00:15:30.385Z,54.57
2023-05-07T00:16:30.428Z,56.83
2023-05-07T00:17:30.521Z,55.20
2023-05-07T00:18:30.371Z,53.96
2023-05-07T00:19:30.382Z,47.51
2023-05-07T00:20:30.350Z,49.46
2023-05-07T00:23:12.280Z,46.07
2023-05-07T00:24:12.267Z,59.14
2023-05-07T00:25:12.277Z,53.61
2023-05-07T00:26:12.252Z,55.20
2023-05-07T00:27:12.249Z,49.23
2023-05-07T00:28:13.339Z,54.41
2023-05-07T00:29:13.314Z,43.21
2023-05-07T00:30:13.430Z,56.03
2023-05-07T00:31:13.365Z,53.34
2023-05-07T00:32:13.438Z,52.21
2023-05-07T00:33:13.359Z,52.88
2023-05-07T00:34:13.278Z,51.14
2023-05-07T00:35:13.388Z,43.83
2023-05-07T00:36:13.273Z,55.17
2023-05-07T00:37:13.251Z,55.35
2023-05-07T00:38:13.258Z,55.43
2023-05-07T00:39:13.928Z,55.43
2023-05-07T00:40:13.387Z,48.77
2023-05-07T00:41:13.246Z,54.09
2023-05-07T00:42:13.224Z,56.61
2023-05-07T00:43:13.223Z,60.04
2023-05-07T00:44:13.206Z,49.77
2023-05-07T00:45:13.195Z,59.52
2023-05-07T00:46:13.239Z,57.80
2023-05-07T00:47:13.173Z,53.90
2023-05-07T00:48:13.203Z,58.52
2023-05-07T00:49:13.167Z,48.86
2023-05-07T00:50:13.458Z,44.37
2023-05-07T00:51:13.167Z,55.82
2023-05-07T00:52:13.130Z,55.94
2023-05-07T00:53:13.134Z,57.17
2023-05-07T00:54:13.112Z,52.76
2023-05-07T00:55:13.216Z,53.96
2023-05-07T00:56:13.105Z,55.07
2023-05-07T00:57:13.110Z,48.59
2023-05-07T00:58:13.083Z,40.52
2023-05-07T00:59:13.126Z,53.21
2023-05-07T01:00:13.391Z,54.05
2023-05-07T01:01:13.116Z,54.32
2023-05-07T01:02:13.048Z,49.51
2023-05-07T01:03:14.063Z,54.54
2023-05-07T01:04:13.063Z,53.53
2023-05-07T01:05:13.143Z,53.38
2023-05-07T01:06:13.027Z,48.71
2023-05-07T01:07:13.017Z,47.11
2023-05-07T01:08:13.005Z,55.33
2023-05-07T01:09:13.014Z,55.59
2023-05-07T01:10:13.291Z,46.53
2023-05-07T01:11:13.044Z,53.36
2023-05-07T01:12:12.979Z,56.51
2023-05-07T01:13:13.022Z,53.31
2023-05-07T01:14:12.972Z,54.26
2023-05-07T01:15:12.960Z,50.46
2023-05-07T01:16:12.950Z,53.94
2023-05-07T01:17:14.035Z,50.00
2023-05-07T01:18:12.969Z,47.79
2023-05-07T01:19:12.933Z,53.66
2023-05-07T01:20:13.127Z,50.86
2023-05-07T01:21:12.989Z,53.28
2023-05-07T01:22:12.930Z,55.47
2023-05-07T01:23:12.917Z,46.05
2023-05-07T01:24:12.924Z,50.50
2023-05-07T01:25:12.885Z,51.19
2023-05-07T01:26:12.897Z,52.59
2023-05-07T01:27:12.870Z,52.36
2023-05-07T01:28:12.862Z,46.77
2023-05-07T01:29:12.857Z,47.62
2023-05-07T01:30:13.044Z,54.08
2023-05-07T01:31:12.843Z,47.61
2023-05-07T01:32:12.826Z,44.74
2023-05-07T01:33:12.816Z,49.00
2023-05-07T01:34:12.803Z,47.31
2023-05-07T01:35:12.799Z,46.49
2023-05-07T01:36:12.792Z,56.35
2023-05-07T01:37:12.873Z,47.01
2023-05-07T01:38:12.784Z,41.36
2023-05-07T01:39:12.769Z,43.77
2023-05-07T01:40:13.541Z,50.81
2023-05-07T01:41:12.755Z,55.23
2023-05-07T01:42:12.749Z,46.95
2023-05-07T01:43:12.757Z,55.48
2023-05-07T01:44:12.730Z,48.33
2023-05-07T01:45:12.741Z,56.10
2023-05-07T01:46:12.718Z,52.27
2023-05-07T01:47:12.716Z,47.32
2023-05-07T01:48:12.713Z,50.27
2023-05-07T01:49:12.697Z,53.80
2023-05-07T01:50:13.027Z,58.12
2023-05-07T01:51:12.668Z,54.53
2023-05-07T01:52:12.664Z,56.16
2023-05-07T01:53:12.731Z,53.65
2023-05-07T01:54:12.643Z,46.26
2023-05-07T01:55:12.644Z,49.13
2023-05-07T01:56:12.630Z,50.73
2023-05-07T01:57:12.612Z,54.30
2023-05-07T01:58:13.046Z,51.72
2023-05-07T01:59:12.609Z,52.92
2023-05-07T02:00:12.857Z,52.28
2023-05-07T02:01:12.729Z,43.10
2023-05-07T02:02:12.640Z,53.22
2023-05-07T02:03:12.682Z,51.81
2023-05-07T02:04:12.643Z,42.55
2023-05-07T02:05:12.557Z,41.21
2023-05-07T02:06:12.548Z,50.80
2023-05-07T02:07:12.538Z,45.30
2023-05-07T02:08:12.558Z,50.45
2023-05-07T02:09:12.609Z,42.24
2023-05-07T02:10:12.755Z,48.50
2023-05-07T02:11:13.475Z,46.83
2023-05-07T02:12:12.505Z,50.36
2023-05-07T02:13:12.526Z,51.66
2023-05-07T02:14:12.508Z,53.86
2023-05-07T02:15:12.488Z,44.44
2023-05-07T02:16:12.505Z,43.64
2023-05-07T02:17:12.471Z,54.52
2023-05-07T02:18:12.469Z,52.00
2023-05-07T02:19:12.456Z,50.72
2023-05-07T02:20:12.501Z,51.88
2023-05-07T02:21:12.483Z,49.86
2023-05-07T02:22:12.444Z,48.24
2023-05-07T02:23:12.423Z,58.11
2023-05-07T02:24:12.417Z,47.33
2023-05-07T02:25:12.591Z,54.43
2023-05-07T02:26:12.399Z,61.25
2023-05-07T02:27:13.463Z,50.62
2023-05-07T02:28:12.444Z,53.60
2023-05-07T02:29:12.373Z,51.40
2023-05-07T02:30:13.055Z,59.09
2023-05-07T02:31:12.360Z,50.05
2023-05-07T02:32:12.437Z,49.54
2023-05-07T02:33:12.366Z,53.15
2023-05-07T02:34:12.349Z,45.07
2023-05-07T02:35:12.967Z,52.25
2023-05-07T02:36:13.050Z,53.16
2023-05-07T02:37:12.306Z,43.76
2023-05-07T02:38:12.322Z,50.03
2023-05-07T02:39:12.298Z,51.03
2023-05-07T02:40:12.602Z,45.67
2023-05-07T02:41:12.367Z,46.81
2023-05-07T02:42:12.285Z,46.30
2023-05-07T02:43:13.043Z,62.46
2023-05-07T02:44:12.255Z,55.45
2023-05-07T02:45:12.264Z,52.38
2023-05-07T02:46:13.095Z,52.85
2023-05-07T02:47:12.243Z,54.32
2023-05-07T02:48:12.229Z,45.47
2023-05-07T02:49:12.222Z,47.96
2023-05-07T02:50:12.439Z,50.77
2023-05-07T02:51:12.203Z,51.99
2023-05-07T02:52:12.205Z,47.76
2023-05-07T02:53:12.180Z,51.76
2023-05-07T02:54:12.186Z,45.92
2023-05-07T02:55:12.202Z,50.40
2023-05-07T02:56:12.169Z,55.15
2023-05-07T02:57:12.226Z,56.39
2023-05-07T02:58:12.137Z,48.92
2023-05-07T02:59:12.121Z,51.19
2023-05-07T03:00:13.174Z,48.48
2023-05-07T03:01:12.185Z,50.80
2023-05-07T03:02:12.128Z,54.39
2023-05-07T03:03:12.164Z,47.68
2023-05-07T03:04:12.150Z,46.49
2023-05-07T03:05:12.105Z,45.74
2023-05-07T03:06:12.074Z,46.38
2023-05-07T03:07:12.068Z,57.82
2023-05-07T03:08:12.057Z,54.35
2023-05-07T03:09:12.057Z,52.55
2023-05-07T03:10:12.305Z,51.55
2023-05-07T03:11:12.053Z,46.19
2023-05-07T03:12:12.033Z,59.36
2023-05-07T03:13:12.170Z,51.44
2023-05-07T03:14:12.026Z,57.33
2023-05-07T03:15:12.022Z,57.05
2023-05-07T03:16:12.019Z,50.43
2023-05-07T03:17:11.990Z,49.14
2023-05-07T03:18:12.084Z,55.78
2023-05-07T03:19:11.992Z,57.16
2023-05-07T03:20:13.225Z,50.01
2023-05-07T03:21:11.957Z,55.87
2023-05-07T03:22:11.949Z,50.66
2023-05-07T03:23:11.959Z,50.26
2023-05-07T03:24:11.935Z,57.22
2023-05-07T03:25:11.937Z,57.00
2023-05-07T03:26:12.499Z,56.56
2023-05-07T03:27:11.925Z,59.35
2023-05-07T03:28:11.908Z,49.74
2023-05-07T03:29:11.983Z,54.18
2023-05-07T03:30:12.045Z,53.27
2023-05-07T03:31:12.546Z,52.75
2023-05-07T03:32:11.997Z,57.08
2023-05-07T03:33:11.895Z,57.21
2023-05-07T03:34:11.858Z,51.86
2023-05-07T03:35:11.856Z,52.16
2023-05-07T03:36:11.843Z,55.55
2023-05-07T03:37:11.830Z,56.23
2023-05-07T03:38:11.811Z,56.80
2023-05-07T03:39:11.813Z,54.92
2023-05-07T03:40:12.285Z,57.47
2023-05-07T03:41:11.841Z,50.90
2023-05-07T03:42:11.789Z,56.87
2023-05-07T03:43:11.784Z,55.86
2023-05-07T03:44:11.775Z,55.07
2023-05-07T03:45:11.768Z,54.56
2023-05-07T03:46:11.805Z,53.98
2023-05-07T03:47:11.770Z,62.91
2023-05-07T03:48:11.815Z,57.38
2023-05-07T03:49:11.738Z,55.15
2023-05-07T03:50:11.979Z,58.06
2023-05-07T03:51:11.716Z,58.84
2023-05-07T03:52:11.888Z,54.39
2023-05-07T03:53:11.718Z,52.96
2023-05-07T03:54:11.692Z,49.73
2023-05-07T03:55:11.697Z,58.87
2023-05-07T03:56:11.671Z,52.92
2023-05-07T03:57:11.692Z,53.72
2023-05-07T03:58:11.681Z,50.15
2023-05-07T03:59:11.660Z,52.26
2023-05-07T04:00:11.879Z,54.73
2023-05-07T04:01:11.641Z,54.85
2023-05-07T04:02:11.656Z,57.60
2023-05-07T04:03:11.745Z,58.76
2023-05-07T04:04:11.699Z,47.73
2023-05-07T04:05:11.614Z,50.46
2023-05-07T04:06:11.611Z,52.59
2023-05-07T04:07:11.597Z,53.25
2023-05-07T04:08:11.593Z,51.85
2023-05-07T04:09:11.601Z,55.42
2023-05-07T04:10:11.781Z,56.52
2023-05-07T04:11:11.585Z,49.96
2023-05-07T04:12:11.567Z,58.47
2023-05-07T04:13:11.589Z,53.28
2023-05-07T04:14:11.552Z,52.20
2023-05-07T04:15:11.534Z,53.38
2023-05-07T04:16:11.634Z,58.38
2023-05-07T04:17:11.518Z,49.91
2023-05-07T04:18:11.520Z,55.40
2023-05-07T04:19:11.505Z,52.91
2023-05-07T04:20:11.747Z,52.18
2023-05-07T04:21:11.543Z,45.82
2023-05-07T04:22:12.484Z,49.76
2023-05-07T04:23:11.987Z,51.57
2023-05-07T04:24:11.467Z,56.36
2023-05-07T04:25:11.476Z,59.02
2023-05-07T04:26:11.461Z,53.76
2023-05-07T04:27:11.434Z,54.55
2023-05-07T04:28:11.430Z,54.05
2023-05-07T04:29:11.431Z,51.79
2023-05-07T04:30:11.727Z,50.77
2023-05-07T04:31:11.436Z,50.09
2023-05-07T04:32:11.504Z,51.23
2023-05-07T04:33:11.436Z,55.58
2023-05-07T04:34:11.397Z,49.47
2023-05-07T04:35:11.383Z,50.92
2023-05-07T04:36:11.396Z,54.41
2023-05-07T04:37:11.414Z,56.54
2023-05-07T04:38:11.369Z,51.37
2023-05-07T04:39:11.356Z,55.40
2023-05-07T04:40:11.553Z,60.35
2023-05-07T04:41:11.326Z,57.04
2023-05-07T04:42:11.372Z,49.06
2023-05-07T04:43:11.371Z,53.68
2023-05-07T04:44:11.351Z,59.86
2023-05-07T04:45:11.314Z,64.26
2023-05-07T04:46:11.327Z,58.53
2023-05-07T04:47:11.305Z,58.90
2023-05-07T04:48:11.308Z,58.68
2023-05-07T04:49:11.435Z,56.49
2023-05-07T04:50:11.469Z,54.56
2023-05-07T04:51:11.254Z,54.08
2023-05-07T04:52:11.253Z,46.65
2023-05-07T04:53:11.258Z,48.05
2023-05-07T04:54:11.249Z,55.99
2023-05-07T04:55:11.220Z,62.35
2023-05-07T04:56:11.216Z,52.79
2023-05-07T04:57:11.246Z,45.63
2023-05-07T04:58:11.214Z,47.76
2023-05-07T04:59:11.194Z,63.06
2023-05-07T05:00:11.339Z,55.05
2023-05-07T05:01:11.222Z,52.90
2023-05-07T05:02:11.188Z,55.60
2023-05-07T05:03:11.235Z,58.23
2023-05-07T05:04:11.302Z,51.96
2023-05-07T05:05:11.189Z,51.86
2023-05-07T05:06:11.158Z,54.95
2023-05-07T05:07:11.130Z,56.28
2023-05-07T05:08:11.130Z,60.67
2023-05-07T05:09:11.123Z,54.75
2023-05-07T05:10:11.370Z,56.68
2023-05-07T05:11:11.117Z,52.93
2023-05-07T05:12:11.108Z,51.53
2023-05-07T05:13:11.106Z,55.83
2023-05-07T05:14:11.092Z,56.63
2023-05-07T05:15:11.081Z,61.47
2023-05-07T05:16:11.248Z,57.70
2023-05-07T05:17:11.067Z,52.88
2023-05-07T05:18:11.051Z,58.75
2023-05-07T05:19:11.064Z,55.52
2023-05-07T05:20:11.192Z,53.22
2023-05-07T05:21:11.110Z,52.76
2023-05-07T05:22:11.046Z,57.61
2023-05-07T05:23:11.016Z,45.89
2023-05-07T05:24:11.013Z,44.79
2023-05-07T05:25:10.995Z,53.28
2023-05-07T05:26:10.986Z,46.42
2023-05-07T05:27:11.013Z,51.04
2023-05-07T05:28:10.977Z,56.94
2023-05-07T05:29:11.029Z,57.10
2023-05-07T05:30:11.141Z,52.75
2023-05-07T05:31:10.970Z,50.46
2023-05-07T05:32:10.941Z,56.92
2023-05-07T05:33:11.029Z,57.77
2023-05-07T05:34:10.940Z,52.23
2023-05-07T05:35:10.914Z,57.33
2023-05-07T05:36:10.909Z,61.04
2023-05-07T05:37:10.923Z,55.28
2023-05-07T05:38:10.895Z,56.98
2023-05-07T05:39:11.893Z,56.27
2023-05-07T05:40:11.780Z,55.93
2023-05-07T05:41:10.897Z,53.93
2023-05-07T05:42:10.869Z,57.46
2023-05-07T05:43:10.867Z,61.62
2023-05-07T05:44:10.858Z,56.94
2023-05-07T05:45:10.846Z,57.54
2023-05-07T05:46:10.881Z,56.73
2023-05-07T05:47:10.830Z,58.07
2023-05-07T05:48:10.886Z,58.27
2023-05-07T05:49:10.804Z,55.79
2023-05-07T05:50:11.024Z,55.07
2023-05-07T05:51:10.807Z,60.50
2023-05-07T05:52:11.521Z,57.95
2023-05-07T05:53:11.796Z,56.00
2023-05-07T05:54:10.785Z,55.10
2023-05-07T05:55:11.527Z,59.72
2023-05-07T05:56:10.769Z,55.16
2023-05-07T05:57:10.745Z,58.02
2023-05-07T05:58:10.737Z,58.51
2023-05-07T05:59:10.786Z,61.86
2023-05-07T06:00:10.961Z,54.39
2023-05-07T06:01:10.728Z,57.81
2023-05-07T06:02:10.743Z,56.24
2023-05-07T06:03:10.751Z,58.39
2023-05-07T06:04:10.691Z,54.71
2023-05-07T06:05:10.733Z,54.97
2023-05-07T06:06:10.668Z,58.44
2023-05-07T06:07:11.677Z,56.08
2023-05-07T06:08:10.686Z,56.63
2023-05-07T06:09:10.671Z,56.16
2023-05-07T06:10:11.033Z,54.67
2023-05-07T06:11:10.645Z,57.34
2023-05-07T06:12:10.633Z,56.54
2023-05-07T06:13:10.650Z,55.07
2023-05-07T06:14:10.630Z,59.67
2023-05-07T06:15:10.620Z,59.66
2023-05-07T06:16:11.627Z,55.41
2023-05-07T06:17:10.605Z,56.28
2023-05-07T06:18:10.637Z,55.67
2023-05-07T06:19:10.589Z,57.35
2023-05-07T06:20:10.920Z,57.65
2023-05-07T06:21:11.617Z,58.41
2023-05-07T06:22:11.101Z,62.14
2023-05-07T06:23:10.625Z,62.87
2023-05-07T06:24:10.554Z,61.91
2023-05-07T06:25:11.597Z,61.62
2023-05-07T06:26:11.521Z,57.72
2023-05-07T06:27:10.521Z,58.72
2023-05-07T06:28:10.513Z,53.82
2023-05-07T06:29:11.022Z,55.21
2023-05-07T06:30:11.223Z,55.79
2023-05-07T06:31:10.516Z,58.07
2023-05-07T06:32:10.585Z,57.51
2023-05-07T06:33:10.520Z,56.69
2023-05-07T06:34:10.472Z,56.26
2023-05-07T06:35:10.474Z,50.81
2023-05-07T06:36:10.991Z,58.00
2023-05-07T06:37:10.452Z,59.95
2023-05-07T06:38:10.429Z,56.66
2023-05-07T06:39:10.423Z,59.03
2023-05-07T06:40:10.599Z,57.63
2023-05-07T06:41:10.593Z,56.71
2023-05-07T06:42:10.406Z,56.09
2023-05-07T06:43:10.383Z,56.32
2023-05-07T06:44:10.378Z,58.62
2023-05-07T06:45:10.369Z,55.52
2023-05-07T06:46:10.432Z,55.26
2023-05-07T06:47:10.353Z,61.25
2023-05-07T06:48:10.343Z,61.43
2023-05-07T06:49:10.382Z,59.10
2023-05-07T06:50:10.478Z,57.47
2023-05-07T06:51:10.336Z,56.31
2023-05-07T06:52:10.313Z,61.80
2023-05-07T06:53:10.301Z,59.90
2023-05-07T06:54:10.302Z,56.87
2023-05-07T06:55:10.303Z,53.37
2023-05-07T06:56:10.300Z,57.92
2023-05-07T06:57:10.268Z,62.31
2023-05-07T06:58:10.259Z,54.78
2023-05-07T06:59:10.261Z,54.40
2023-05-07T07:00:10.624Z,57.92
2023-05-07T07:01:10.275Z,56.52
2023-05-07T07:02:10.221Z,62.43
2023-05-07T07:03:10.261Z,61.37
2023-05-07T07:04:10.254Z,64.56
2023-05-07T07:05:10.282Z,63.10
2023-05-07T07:06:10.217Z,62.80
2023-05-07T07:07:10.188Z,55.93
2023-05-07T07:08:10.180Z,59.95
2023-05-07T07:09:10.188Z,57.49
2023-05-07T07:10:10.365Z,59.19
2023-05-07T07:11:10.161Z,60.20
2023-05-07T07:12:10.145Z,56.61
2023-05-07T07:13:10.260Z,58.83
2023-05-07T07:14:10.149Z,57.94
2023-05-07T07:15:10.139Z,58.56
2023-05-07T07:16:10.184Z,57.05
2023-05-07T07:17:10.109Z,59.26
2023-05-07T07:18:10.157Z,58.17
2023-05-07T07:19:10.105Z,60.49
2023-05-07T07:20:11.787Z,60.89
2023-05-07T07:21:11.076Z,60.31
2023-05-07T07:22:10.091Z,54.46
2023-05-07T07:23:10.059Z,59.34
2023-05-07T07:24:10.055Z,61.26
2023-05-07T07:25:10.930Z,60.78
2023-05-07T07:26:11.044Z,59.93
2023-05-07T07:27:11.032Z,59.37
2023-05-07T07:28:10.031Z,58.18
2023-05-07T07:29:11.149Z,59.90
2023-05-07T07:30:10.177Z,60.91
2023-05-07T07:31:10.054Z,59.72
2023-05-07T07:32:09.995Z,59.52
2023-05-07T07:33:10.091Z,60.19
2023-05-07T07:34:09.991Z,60.32
2023-05-07T07:35:09.970Z,63.69
2023-05-07T07:36:09.965Z,59.13
2023-05-07T07:37:09.948Z,56.39
2023-05-07T07:38:09.949Z,58.44
2023-05-07T07:39:09.945Z,60.70
2023-05-07T07:40:10.374Z,60.28
2023-05-07T07:41:09.917Z,60.56
2023-05-07T07:42:09.918Z,60.32
2023-05-07T07:43:10.535Z,60.80
2023-05-07T07:44:09.936Z,62.96
2023-05-07T07:45:09.990Z,59.99
2023-05-07T07:46:09.886Z,58.76
2023-05-07T07:47:09.957Z,59.33
2023-05-07T07:48:09.972Z,62.98
2023-05-07T07:49:09.868Z,59.74
2023-05-07T07:50:10.073Z,59.41
2023-05-07T07:51:09.879Z,62.60
2023-05-07T07:52:09.857Z,59.75
2023-05-07T07:53:09.826Z,63.10
2023-05-07T07:54:09.861Z,58.63
2023-05-07T07:55:10.544Z,58.98
2023-05-07T07:56:09.807Z,59.28
2023-05-07T07:57:09.794Z,58.97
2023-05-07T07:58:09.805Z,58.39
2023-05-07T07:59:09.825Z,61.09
2023-05-07T08:00:09.915Z,61.99
2023-05-07T08:01:09.894Z,59.43
2023-05-07T08:02:09.826Z,62.61
2023-05-07T08:03:09.905Z,60.85
2023-05-07T08:04:09.838Z,59.76
2023-05-07T08:05:10.543Z,60.60
2023-05-07T08:06:09.745Z,56.32
2023-05-07T08:07:10.556Z,58.86
2023-05-07T08:08:09.703Z,59.70
2023-05-07T08:09:09.693Z,61.42
2023-05-07T08:10:10.897Z,60.13
2023-05-07T08:11:09.698Z,60.24
2023-05-07T08:12:10.554Z,60.82
2023-05-07T08:13:09.774Z,59.98
2023-05-07T08:14:09.669Z,60.51
2023-05-07T08:15:09.651Z,62.05
2023-05-07T08:16:10.632Z,58.36
2023-05-07T08:17:09.724Z,62.72
2023-05-07T08:18:09.682Z,63.08
2023-05-07T08:19:09.615Z,59.70
2023-05-07T08:20:10.424Z,61.20
2023-05-07T08:21:09.601Z,61.74
2023-05-07T08:22:09.596Z,60.74
2023-05-07T08:23:09.644Z,60.90
2023-05-07T08:24:10.550Z,58.43
2023-05-07T08:25:09.569Z,60.58
2023-05-07T08:26:09.566Z,58.03
2023-05-07T08:27:09.558Z,59.00
2023-05-07T08:28:10.144Z,60.55
2023-05-07T08:29:10.585Z,60.28
2023-05-07T08:30:09.662Z,60.22
2023-05-07T08:31:09.539Z,62.08
2023-05-07T08:32:09.524Z,57.53
2023-05-07T08:33:09.640Z,59.46
2023-05-07T08:34:10.178Z,57.56
2023-05-07T08:35:10.487Z,59.78
2023-05-07T08:36:09.527Z,58.39
2023-05-07T08:37:10.481Z,60.79
2023-05-07T08:38:11.154Z,63.09
2023-05-07T08:39:09.469Z,59.24
2023-05-07T08:40:12.259Z,58.64
2023-05-07T08:41:11.462Z,59.15
2023-05-07T08:42:09.450Z,59.84
2023-05-07T08:43:09.438Z,59.09
2023-05-07T08:44:09.423Z,60.99
2023-05-07T08:45:09.421Z,62.29
2023-05-07T08:46:10.343Z,61.21
2023-05-07T08:47:10.394Z,61.52
2023-05-07T08:48:09.420Z,59.50
2023-05-07T08:49:09.511Z,61.63
2023-05-07T08:50:09.483Z,61.55
2023-05-07T08:51:09.361Z,64.24
2023-05-07T08:52:10.126Z,62.13
2023-05-07T08:53:10.350Z,59.13
2023-05-07T08:54:09.340Z,61.30
2023-05-07T08:55:09.429Z,59.30
2023-05-07T08:56:09.345Z,61.91
2023-05-07T08:57:09.314Z,60.79
2023-05-07T08:58:09.314Z,60.30
2023-05-07T08:59:09.297Z,59.58
2023-05-07T09:00:09.378Z,58.68
2023-05-07T09:03:16.185Z,62.95
2023-05-07T09:04:16.309Z,65.85
2023-05-07T09:05:16.112Z,63.19
2023-05-07T09:06:16.121Z,61.35
2023-05-07T09:07:17.191Z,61.66
2023-05-07T09:08:17.272Z,63.18
2023-05-07T09:09:17.165Z,60.88
2023-05-07T09:10:17.171Z,60.26
2023-05-07T09:11:17.183Z,59.41
2023-05-07T09:12:17.154Z,62.92
2023-05-07T09:13:17.256Z,57.99
2023-05-07T09:14:19.061Z,66.84
2023-05-07T09:15:17.133Z,58.67
2023-05-07T09:16:17.160Z,61.50
2023-05-07T09:17:17.104Z,57.54
2023-05-07T09:18:17.146Z,62.39
2023-05-07T09:19:17.089Z,59.81
2023-05-07T09:20:17.167Z,57.04
2023-05-07T09:21:17.074Z,62.15
2023-05-07T09:22:17.061Z,61.76
2023-05-07T09:23:17.066Z,60.83
2023-05-07T09:24:17.045Z,62.90
2023-05-07T09:25:17.071Z,60.90
2023-05-07T09:26:17.031Z,62.53
2023-05-07T09:27:17.019Z,61.29
2023-05-07T09:28:19.007Z,59.56
2023-05-07T09:29:19.485Z,61.83
2023-05-07T09:30:17.054Z,60.92
2023-05-07T09:31:18.229Z,62.99
2023-05-07T09:32:17.032Z,63.29
2023-05-07T09:33:17.489Z,61.77
2023-05-07T09:34:16.977Z,61.20
2023-05-07T09:35:17.015Z,61.38
2023-05-07T09:36:17.053Z,62.69
2023-05-07T09:37:16.948Z,63.07
2023-05-07T09:38:16.935Z,61.14
2023-05-07T09:39:16.947Z,61.11
2023-05-07T09:40:16.926Z,63.97
2023-05-07T09:41:18.619Z,60.17
2023-05-07T09:42:16.942Z,60.49
2023-05-07T09:43:17.104Z,61.02
2023-05-07T09:44:16.907Z,61.05
2023-05-07T09:45:17.596Z,61.34
2023-05-07T09:46:16.913Z,62.72
2023-05-07T09:47:16.867Z,63.58
2023-05-07T09:48:16.891Z,62.30
2023-05-07T09:49:17.780Z,61.55
2023-05-07T09:50:17.631Z,64.05
2023-05-07T09:51:16.875Z,63.14
2023-05-07T09:52:17.053Z,62.36
2023-05-07T09:53:17.517Z,61.76
2023-05-07T09:54:16.909Z,63.59
2023-05-07T09:55:17.529Z,61.91
2023-05-07T09:56:16.810Z,62.19
2023-05-07T09:57:16.810Z,63.35
2023-05-07T09:58:16.796Z,60.97
2023-05-07T09:59:21.504Z,61.51
2023-05-07T10:00:16.855Z,62.64
2023-05-07T10:01:17.599Z,61.86
2023-05-07T10:02:16.831Z,62.73
2023-05-07T10:03:16.818Z,61.83
2023-05-07T10:04:16.759Z,62.56
2023-05-07T10:05:18.608Z,62.14
2023-05-07T10:06:16.727Z,60.94
2023-05-07T10:07:17.494Z,63.99
2023-05-07T10:08:16.777Z,63.20
2023-05-07T10:09:17.376Z,65.20
2023-05-07T10:10:16.740Z,62.95
2023-05-07T10:11:16.699Z,62.50
2023-05-07T10:12:16.748Z,62.80
2023-05-07T10:13:16.692Z,60.59
2023-05-07T10:14:16.675Z,64.61
2023-05-07T10:15:16.656Z,61.99
2023-05-07T10:16:16.664Z,64.02
2023-05-07T10:17:17.658Z,64.23
2023-05-07T10:18:16.727Z,65.22
2023-05-07T10:19:17.623Z,62.73
2023-05-07T10:20:16.682Z,62.23
2023-05-07T10:21:21.688Z,63.56
2023-05-07T10:22:22.498Z,61.26
2023-05-07T10:23:19.319Z,62.90
2023-05-07T10:24:16.594Z,62.87
2023-05-07T10:25:16.583Z,62.04
2023-05-07T10:26:16.584Z,60.54
2023-05-07T10:27:16.575Z,61.63
2023-05-07T10:28:18.088Z,63.04
2023-05-07T10:29:16.555Z,61.28
2023-05-07T10:30:16.554Z,62.16
2023-05-07T10:31:16.540Z,60.45
2023-05-07T10:32:16.557Z,60.95
2023-05-07T10:33:16.677Z,60.86
2023-05-07T10:34:16.519Z,61.20
2023-05-07T10:35:17.090Z,61.48
2023-05-07T10:36:16.502Z,61.84
2023-05-07T10:37:16.522Z,62.11
2023-05-07T10:38:19.107Z,62.04
2023-05-07T10:40:16.478Z,62.45
2023-05-07T10:41:17.034Z,61.67
2023-05-07T10:42:16.469Z,60.76
2023-05-07T10:43:18.019Z,60.59
2023-05-07T10:44:16.439Z,61.38
2023-05-07T10:45:16.448Z,61.70
2023-05-07T10:46:16.505Z,62.55
2023-05-07T10:47:18.098Z,62.89
2023-05-07T10:48:29.745Z,61.95
2023-05-07T10:49:18.405Z,64.33
2023-05-07T10:50:16.426Z,64.03
2023-05-07T10:51:20.036Z,61.23
2023-05-07T10:52:17.131Z,63.06
2023-05-07T10:53:16.369Z,62.71
2023-05-07T10:54:18.147Z,66.03
2023-05-07T10:55:16.706Z,64.62
2023-05-07T10:56:16.343Z,61.61
2023-05-07T10:57:18.066Z,60.62
2023-05-07T10:58:30.120Z,63.83
2023-05-07T10:59:18.325Z,62.64
2023-05-07T11:00:18.431Z,62.81
2023-05-07T11:01:18.374Z,60.19
2023-05-07T11:02:16.372Z,63.68
2023-05-07T11:03:16.312Z,65.49
2023-05-07T11:04:16.304Z,62.26
2023-05-07T11:05:16.325Z,62.48
2023-05-07T11:06:16.285Z,64.99
2023-05-07T11:07:16.281Z,68.06
2023-05-07T11:08:16.238Z,67.80
2023-05-07T11:09:16.247Z,61.18
2023-05-07T11:10:16.239Z,61.83
2023-05-07T11:11:16.242Z,61.83
2023-05-07T11:12:16.240Z,62.75
2023-05-07T11:13:19.079Z,62.55
2023-05-07T11:14:16.201Z,60.71
2023-05-07T11:15:16.186Z,62.33
2023-05-07T11:16:18.114Z,58.89
2023-05-07T11:17:16.175Z,60.53
2023-05-07T11:18:16.169Z,63.43
2023-05-07T11:19:16.182Z,60.87
2023-05-07T11:20:16.160Z,61.23
2023-05-07T11:21:16.142Z,59.93
2023-05-07T11:22:16.164Z,62.53
2023-05-07T11:23:16.126Z,64.49
2023-05-07T11:24:16.116Z,63.13
2023-05-07T11:25:17.612Z,60.67
2023-05-07T11:26:17.611Z,60.61
2023-05-07T11:27:16.137Z,61.80
2023-05-07T11:28:16.099Z,60.73
2023-05-07T11:29:16.090Z,61.07
2023-05-07T11:30:16.068Z,64.36
2023-05-07T11:31:16.071Z,62.73
2023-05-07T11:32:16.057Z,62.19
2023-05-07T11:33:16.084Z,61.79
2023-05-07T11:34:17.061Z,60.55
2023-05-07T11:35:16.035Z,60.16
2023-05-07T11:36:16.007Z,62.61
2023-05-07T11:37:17.623Z,64.12
2023-05-07T11:38:16.630Z,65.45
2023-05-07T11:39:15.989Z,63.08
2023-05-07T11:40:16.983Z,59.44
2023-05-07T11:41:15.970Z,61.74
2023-05-07T11:42:15.975Z,63.27
2023-05-07T11:43:16.029Z,61.03
2023-05-07T11:44:15.957Z,63.02
2023-05-07T11:45:15.945Z,63.93
2023-05-07T11:46:15.947Z,64.42
2023-05-07T11:47:15.919Z,62.76
2023-05-07T11:48:15.929Z,60.45
2023-05-07T11:49:18.621Z,62.72
2023-05-07T11:50:15.917Z,60.86
2023-05-07T11:51:15.924Z,63.85
2023-05-07T11:52:15.902Z,60.43
2023-05-07T11:53:15.885Z,63.86
2023-05-07T11:54:15.900Z,66.06
2023-05-07T11:55:16.540Z,62.69
2023-05-07T11:56:15.916Z,63.25
2023-05-07T11:57:18.623Z,63.93
2023-05-07T11:59:15.827Z,60.24
2023-05-07T12:00:15.834Z,62.11
2023-05-07T12:01:15.815Z,61.83
2023-05-07T12:02:15.876Z,64.52
2023-05-07T12:03:15.881Z,63.13
2023-05-07T12:04:16.263Z,61.93
2023-05-07T12:05:15.848Z,61.59
2023-05-07T12:06:15.827Z,62.44
2023-05-07T12:07:15.800Z,61.81
2023-05-07T12:08:15.773Z,63.78
2023-05-07T12:09:16.660Z,63.00
2023-05-07T12:10:15.749Z,61.73
2023-05-07T12:11:15.796Z,63.41
2023-05-07T12:12:17.622Z,60.72
2023-05-07T12:13:15.778Z,64.42
2023-05-07T12:14:15.719Z,64.34
2023-05-07T12:15:19.537Z,64.33
2023-05-07T12:16:15.719Z,58.91
2023-05-07T12:17:15.862Z,61.27
2023-05-07T12:18:15.688Z,59.92
2023-05-07T12:19:16.014Z,63.72
2023-05-07T12:20:16.658Z,63.24
2023-05-07T12:21:15.679Z,64.01
2023-05-07T12:22:15.648Z,67.65
2023-05-07T12:23:17.541Z,68.53
2023-05-07T12:24:15.660Z,61.59
2023-05-07T12:25:15.854Z,66.08
2023-05-07T12:26:15.627Z,63.87
2023-05-07T12:27:15.680Z,62.22
2023-05-07T12:28:15.602Z,61.59
2023-05-07T12:29:15.603Z,61.61
2023-05-07T12:30:15.606Z,62.02
2023-05-07T12:31:15.762Z,60.63
2023-05-07T12:32:15.607Z,63.75
2023-05-07T12:33:16.554Z,68.93
2023-05-07T12:34:18.562Z,68.99
2023-05-07T12:35:15.540Z,64.42
2023-05-07T12:36:15.563Z,65.98
2023-05-07T12:37:15.548Z,60.59
2023-05-07T12:38:15.554Z,62.39
2023-05-07T12:39:15.515Z,62.44
2023-05-07T12:40:15.540Z,60.51
2023-05-07T12:41:16.064Z,64.62
2023-05-07T12:42:15.532Z,60.61
2023-05-07T12:43:15.488Z,63.96
2023-05-07T12:44:16.072Z,62.46
2023-05-07T12:45:16.646Z,63.88
2023-05-07T12:46:15.611Z,60.40
2023-05-07T12:47:15.469Z,64.98
2023-05-07T12:48:15.444Z,64.41
2023-05-07T12:49:15.450Z,61.49
2023-05-07T12:50:15.485Z,64.61
2023-05-07T12:51:17.173Z,66.31
2023-05-07T12:52:15.455Z,62.73
2023-05-07T12:53:15.417Z,64.61
2023-05-07T12:54:15.408Z,68.10
2023-05-07T12:55:17.080Z,66.72
2023-05-07T12:56:15.378Z,63.75
2023-05-07T12:57:15.402Z,63.71
2023-05-07T12:58:15.361Z,63.22